sensor_id;sensor_type;location;lat;lon;timestamp;pressure;altitude;pressure_sealevel;temperature;humidity
60820;BME280;46641;48.904;9.126;2023-03-03T00:04:49;98812.06;;;10.95;53.85
60820;BME280;46641;48.904;9.126;2023-03-03T00:09:39;98814.00;;;10.93;53.88
60820;BME280;46641;48.904;9.126;2023-03-03T00:14:31;98812.63;;;10.89;53.95
60820;BME280;46641;48.904;9.126;2023-03-03T00:19:22;98808.50;;;10.87;54.05
60820;BME280;46641;48.904;9.126;2023-03-03T00:39:21;98819.28;;;10.74;53.54
60820;BME280;46641;48.904;9.126;2023-03-03T00:49:31;98815.41;;;10.68;54.15
60820;BME280;46641;48.904;9.126;2023-03-03T00:54:22;98814.88;;;10.65;54.14
60820;BME280;46641;48.904;9.126;2023-03-03T00:59:12;98827.28;;;10.63;54.23
60820;BME280;46641;48.904;9.126;2023-03-03T01:04:03;98810.88;;;10.61;54.26
60820;BME280;46641;48.904;9.126;2023-03-03T01:08:53;98807.72;;;10.57;54.50
60820;BME280;46641;48.904;9.126;2023-03-03T01:13:47;98801.13;;;10.53;54.29
60820;BME280;46641;48.904;9.126;2023-03-03T01:18:39;98800.44;;;10.51;54.55
60820;BME280;46641;48.904;9.126;2023-03-03T01:23:30;98803.31;;;10.48;54.56
60820;BME280;46641;48.904;9.126;2023-03-03T01:28:21;98810.47;;;10.46;54.42
60820;BME280;46641;48.904;9.126;2023-03-03T01:33:11;98814.34;;;10.42;54.49
60820;BME280;46641;48.904;9.126;2023-03-03T01:38:02;98817.94;;;10.41;54.51
60820;BME280;46641;48.904;9.126;2023-03-03T01:42:52;98819.19;;;10.37;54.71
60820;BME280;46641;48.904;9.126;2023-03-03T01:47:49;98813.25;;;10.35;54.16
60820;BME280;46641;48.904;9.126;2023-03-03T01:52:45;98811.88;;;10.31;54.26
60820;BME280;46641;48.904;9.126;2023-03-03T01:57:39;98796.47;;;10.27;54.47
60820;BME280;46641;48.904;9.126;2023-03-03T02:02:33;98786.38;;;10.23;54.72
60820;BME280;46641;48.904;9.126;2023-03-03T02:07:25;98777.97;;;10.19;54.54
60820;BME280;46641;48.904;9.126;2023-03-03T02:12:19;98780.88;;;10.16;54.61
60820;BME280;46641;48.904;9.126;2023-03-03T02:17:11;98782.94;;;10.13;55.13
60820;BME280;46641;48.904;9.126;2023-03-03T02:22:02;98785.00;;;10.09;54.97
60820;BME280;46641;48.904;9.126;2023-03-03T02:26:52;98793.81;;;10.08;54.93
60820;BME280;46641;48.904;9.126;2023-03-03T02:31:43;98783.63;;;10.05;55.16
60820;BME280;46641;48.904;9.126;2023-03-03T02:36:36;98785.69;;;10.01;55.01
60820;BME280;46641;48.904;9.126;2023-03-03T02:41:33;98792.03;;;9.99;54.51
60820;BME280;46641;48.904;9.126;2023-03-03T02:46:25;98801.78;;;9.97;55.31
60820;BME280;46641;48.904;9.126;2023-03-03T02:51:15;98788.84;;;9.95;55.03
60820;BME280;46641;48.904;9.126;2023-03-03T02:56:06;98794.22;;;9.94;55.25
60820;BME280;46641;48.904;9.126;2023-03-03T03:00:58;98800.69;;;9.90;55.15
60820;BME280;46641;48.904;9.126;2023-03-03T03:05:48;98800.25;;;9.84;55.48
60820;BME280;46641;48.904;9.126;2023-03-03T03:10:39;98804.66;;;9.84;55.23
60820;BME280;46641;48.904;9.126;2023-03-03T03:15:29;98795.31;;;9.81;55.35
60820;BME280;46641;48.904;9.126;2023-03-03T03:20:19;98806.16;;;9.77;55.41
60820;BME280;46641;48.904;9.126;2023-03-03T03:25:09;98803.97;;;9.72;55.43
60820;BME280;46641;48.904;9.126;2023-03-03T03:29:59;98808.50;;;9.70;55.63
60820;BME280;46641;48.904;9.126;2023-03-03T03:34:50;98816.59;;;9.67;55.38
60820;BME280;46641;48.904;9.126;2023-03-03T03:39:40;98802.84;;;9.65;55.60
60820;BME280;46641;48.904;9.126;2023-03-03T03:44:31;98810.97;;;9.62;55.75
60820;BME280;46641;48.904;9.126;2023-03-03T03:49:21;98803.38;;;9.59;55.88
60820;BME280;46641;48.904;9.126;2023-03-03T03:54:11;98808.72;;;9.57;55.54
60820;BME280;46641;48.904;9.126;2023-03-03T03:59:02;98808.06;;;9.55;55.56
60820;BME280;46641;48.904;9.126;2023-03-03T04:03:52;98809.25;;;9.51;55.76
60820;BME280;46641;48.904;9.126;2023-03-03T04:08:42;98800.88;;;9.48;56.00
60820;BME280;46641;48.904;9.126;2023-03-03T04:13:33;98810.63;;;9.46;56.00
60820;BME280;46641;48.904;9.126;2023-03-03T04:18:24;98818.59;;;9.44;55.92
60820;BME280;46641;48.904;9.126;2023-03-03T04:23:14;98811.84;;;9.42;55.86
60820;BME280;46641;48.904;9.126;2023-03-03T04:28:04;98813.63;;;9.41;56.00
60820;BME280;46641;48.904;9.126;2023-03-03T04:32:55;98819.94;;;9.39;55.86
60820;BME280;46641;48.904;9.126;2023-03-03T04:37:45;98833.97;;;9.38;55.87
60820;BME280;46641;48.904;9.126;2023-03-03T04:42:35;98834.13;;;9.36;56.32
60820;BME280;46641;48.904;9.126;2023-03-03T04:47:26;98824.88;;;9.32;55.94
60820;BME280;46641;48.904;9.126;2023-03-03T04:52:16;98825.69;;;9.32;56.17
60820;BME280;46641;48.904;9.126;2023-03-03T04:57:07;98836.41;;;9.29;56.10
60820;BME280;46641;48.904;9.126;2023-03-03T05:01:58;98840.81;;;9.29;56.17
60820;BME280;46641;48.904;9.126;2023-03-03T05:06:48;98838.34;;;9.27;56.59
60820;BME280;46641;48.904;9.126;2023-03-03T05:11:39;98841.91;;;9.26;56.44
60820;BME280;46641;48.904;9.126;2023-03-03T05:16:29;98839.31;;;9.26;56.42
60820;BME280;46641;48.904;9.126;2023-03-03T05:21:20;98839.56;;;9.23;56.50
60820;BME280;46641;48.904;9.126;2023-03-03T05:26:10;98833.63;;;9.21;56.83
60820;BME280;46641;48.904;9.126;2023-03-03T05:31:00;98845.03;;;9.20;56.59
60820;BME280;46641;48.904;9.126;2023-03-03T05:35:55;98850.28;;;9.20;56.41
60820;BME280;46641;48.904;9.126;2023-03-03T05:40:46;98864.41;;;9.18;56.74
60820;BME280;46641;48.904;9.126;2023-03-03T05:45:36;98861.66;;;9.19;56.67
60820;BME280;46641;48.904;9.126;2023-03-03T05:50:26;98859.19;;;9.18;56.76
60820;BME280;46641;48.904;9.126;2023-03-03T05:55:17;98858.34;;;9.17;56.67
60820;BME280;46641;48.904;9.126;2023-03-03T06:00:10;98872.25;;;9.18;56.67
60820;BME280;46641;48.904;9.126;2023-03-03T06:05:01;98880.06;;;9.18;56.94
60820;BME280;46641;48.904;9.126;2023-03-03T06:09:51;98874.97;;;9.16;56.82
60820;BME280;46641;48.904;9.126;2023-03-03T06:14:41;98880.19;;;9.16;57.07
60820;BME280;46641;48.904;9.126;2023-03-03T06:19:32;98885.09;;;9.09;53.76
60820;BME280;46641;48.904;9.126;2023-03-03T06:24:22;98891.06;;;8.91;52.87
60820;BME280;46641;48.904;9.126;2023-03-03T06:29:14;98900.56;;;8.80;53.22
60820;BME280;46641;48.904;9.126;2023-03-03T06:34:04;98905.34;;;8.75;53.73
60820;BME280;46641;48.904;9.126;2023-03-03T06:38:54;98909.03;;;8.73;53.69
60820;BME280;46641;48.904;9.126;2023-03-03T06:43:45;98905.34;;;8.75;54.12
60820;BME280;46641;48.904;9.126;2023-03-03T06:48:35;98910.31;;;8.78;53.92
60820;BME280;46641;48.904;9.126;2023-03-03T06:53:25;98911.00;;;8.80;54.33
60820;BME280;46641;48.904;9.126;2023-03-03T06:58:19;98922.16;;;8.82;54.40
60820;BME280;46641;48.904;9.126;2023-03-03T07:03:18;98924.38;;;8.87;54.38
60820;BME280;46641;48.904;9.126;2023-03-03T07:08:19;98925.91;;;8.89;54.57
60820;BME280;46641;48.904;9.126;2023-03-03T07:18:20;98928.28;;;8.93;54.43
60820;BME280;46641;48.904;9.126;2023-03-03T07:23:38;98931.59;;;8.95;54.64
60820;BME280;46641;48.904;9.126;2023-03-03T07:28:31;98931.59;;;8.95;54.99
60820;BME280;46641;48.904;9.126;2023-03-03T07:33:27;98936.56;;;8.98;54.70
60820;BME280;46641;48.904;9.126;2023-03-03T07:38:23;98933.00;;;8.99;54.85
60820;BME280;46641;48.904;9.126;2023-03-03T07:43:32;98951.41;;;8.97;54.99
60820;BME280;46641;48.904;9.126;2023-03-03T07:48:28;98956.63;;;8.97;55.00
60820;BME280;46641;48.904;9.126;2023-03-03T07:58:21;98964.06;;;9.02;54.67
60820;BME280;46641;48.904;9.126;2023-03-03T08:03:16;98966.53;;;9.03;55.49
60820;BME280;46641;48.904;9.126;2023-03-03T08:13:01;98973.44;;;9.04;55.25
60820;BME280;46641;48.904;9.126;2023-03-03T08:18:00;98969.88;;;9.05;55.45
60820;BME280;46641;48.904;9.126;2023-03-03T08:22:50;98966.19;;;9.08;55.99
60820;BME280;46641;48.904;9.126;2023-03-03T08:27:41;98972.22;;;9.08;55.43
60820;BME280;46641;48.904;9.126;2023-03-03T08:32:31;98962.50;;;9.10;55.71
60820;BME280;46641;48.904;9.126;2023-03-03T08:37:21;98962.25;;;9.13;55.67
60820;BME280;46641;48.904;9.126;2023-03-03T08:42:11;98961.13;;;9.16;55.19
60820;BME280;46641;48.904;9.126;2023-03-03T08:47:02;98963.50;;;9.19;55.72
60820;BME280;46641;48.904;9.126;2023-03-03T08:51:52;98963.94;;;9.24;55.32
60820;BME280;46641;48.904;9.126;2023-03-03T08:56:43;98971.28;;;9.30;56.18
60820;BME280;46641;48.904;9.126;2023-03-03T09:01:33;98986.44;;;9.36;55.17
60820;BME280;46641;48.904;9.126;2023-03-03T09:06:24;98977.38;;;9.41;55.32
60820;BME280;46641;48.904;9.126;2023-03-03T09:11:19;98991.59;;;9.48;55.15
60820;BME280;46641;48.904;9.126;2023-03-03T09:16:14;98989.53;;;9.51;54.86
60820;BME280;46641;48.904;9.126;2023-03-03T09:21:34;98998.81;;;9.55;54.21
60820;BME280;46641;48.904;9.126;2023-03-03T09:26:27;99002.41;;;9.64;54.73
60820;BME280;46641;48.904;9.126;2023-03-03T09:31:24;98999.03;;;9.73;54.65
60820;BME280;46641;48.904;9.126;2023-03-03T09:36:25;99004.16;;;9.84;54.67
60820;BME280;46641;48.904;9.126;2023-03-03T09:41:35;98991.81;;;9.96;55.13
60820;BME280;46641;48.904;9.126;2023-03-03T09:46:45;98998.06;;;10.05;54.31
60820;BME280;46641;48.904;9.126;2023-03-03T09:51:46;99007.03;;;10.12;55.23
60820;BME280;46641;48.904;9.126;2023-03-03T09:56:43;99008.16;;;10.19;55.26
60820;BME280;46641;48.904;9.126;2023-03-03T10:06:44;99008.25;;;10.39;54.14
60820;BME280;46641;48.904;9.126;2023-03-03T10:11:37;99013.91;;;10.44;54.70
60820;BME280;46641;48.904;9.126;2023-03-03T10:27:04;98998.50;;;10.60;54.17
60820;BME280;46641;48.904;9.126;2023-03-03T10:37:54;99005.13;;;10.74;53.91
60820;BME280;46641;48.904;9.126;2023-03-03T10:42:44;99000.47;;;10.77;54.86
60820;BME280;46641;48.904;9.126;2023-03-03T10:52:59;99001.16;;;10.89;54.66
60820;BME280;46641;48.904;9.126;2023-03-03T11:03:35;99002.53;;;11.03;54.88
60820;BME280;46641;48.904;9.126;2023-03-03T11:08:45;99005.00;;;11.14;53.46
60820;BME280;46641;48.904;9.126;2023-03-03T11:13:51;98998.66;;;11.17;54.30
60820;BME280;46641;48.904;9.126;2023-03-03T11:18:54;99010.94;;;11.26;54.26
60820;BME280;46641;48.904;9.126;2023-03-03T11:39:41;98997.53;;;11.49;54.64
60820;BME280;46641;48.904;9.126;2023-03-03T11:44:49;98990.06;;;11.54;54.22
60820;BME280;46641;48.904;9.126;2023-03-03T11:50:00;98976.94;;;11.63;54.10
60820;BME280;46641;48.904;9.126;2023-03-03T11:54:58;98975.81;;;11.66;54.22
60820;BME280;46641;48.904;9.126;2023-03-03T11:59:59;98971.78;;;11.72;55.08
60820;BME280;46641;48.904;9.126;2023-03-03T12:25:38;98953.44;;;11.72;51.17
60820;BME280;46641;48.904;9.126;2023-03-03T12:36:08;98949.63;;;12.03;50.06
60820;BME280;46641;48.904;9.126;2023-03-03T12:57:23;98943.44;;;12.22;51.92
60820;BME280;46641;48.904;9.126;2023-03-03T13:07:50;98932.03;;;12.31;52.66
60820;BME280;46641;48.904;9.126;2023-03-03T13:12:55;98928.81;;;12.37;51.51
60820;BME280;46641;48.904;9.126;2023-03-03T13:18:19;98925.91;;;12.40;51.22
60820;BME280;46641;48.904;9.126;2023-03-03T13:28:27;98927.94;;;12.47;51.73
60820;BME280;46641;48.904;9.126;2023-03-03T13:33:26;98930.13;;;12.51;50.46
60820;BME280;46641;48.904;9.126;2023-03-03T13:38:26;98926.88;;;12.57;51.00
60820;BME280;46641;48.904;9.126;2023-03-03T13:43:28;98928.25;;;12.61;51.36
60820;BME280;46641;48.904;9.126;2023-03-03T14:19:35;98894.84;;;12.72;51.46
60820;BME280;46641;48.904;9.126;2023-03-03T14:24:28;98886.00;;;12.73;52.27
60820;BME280;46641;48.904;9.126;2023-03-03T14:39:36;98887.41;;;12.85;50.80
60820;BME280;46641;48.904;9.126;2023-03-03T14:44:28;98886.94;;;12.90;51.59
60820;BME280;46641;48.904;9.126;2023-03-03T14:49:32;98885.50;;;12.95;49.30
60820;BME280;46641;48.904;9.126;2023-03-03T14:54:26;98885.50;;;12.95;51.58
60820;BME280;46641;48.904;9.126;2023-03-03T14:59:22;98881.44;;;13.01;50.96
60820;BME280;46641;48.904;9.126;2023-03-03T15:09:23;98873.38;;;12.76;51.10
60820;BME280;46641;48.904;9.126;2023-03-03T15:14:19;98869.41;;;12.19;54.39
60820;BME280;46641;48.904;9.126;2023-03-03T15:19:41;98869.13;;;12.75;52.32
60820;BME280;46641;48.904;9.126;2023-03-03T15:24:39;98861.25;;;13.01;52.07
60820;BME280;46641;48.904;9.126;2023-03-03T15:34:51;98864.97;;;13.17;50.98
60820;BME280;46641;48.904;9.126;2023-03-03T15:40:11;98859.41;;;13.20;51.20
60820;BME280;46641;48.904;9.126;2023-03-03T15:55:48;98863.81;;;13.19;51.80
60820;BME280;46641;48.904;9.126;2023-03-03T16:00:47;98873.38;;;13.20;52.38
60820;BME280;46641;48.904;9.126;2023-03-03T16:05:51;98866.31;;;13.21;51.87
60820;BME280;46641;48.904;9.126;2023-03-03T16:11:11;98875.81;;;13.22;51.52
60820;BME280;46641;48.904;9.126;2023-03-03T16:27:11;98881.47;;;13.27;52.37
60820;BME280;46641;48.904;9.126;2023-03-03T16:32:03;98889.19;;;13.28;51.65
60820;BME280;46641;48.904;9.126;2023-03-03T16:37:15;98897.25;;;13.27;52.12
60820;BME280;46641;48.904;9.126;2023-03-03T16:42:28;98896.28;;;13.28;52.22
60820;BME280;46641;48.904;9.126;2023-03-03T16:47:32;98906.66;;;13.29;52.09
60820;BME280;46641;48.904;9.126;2023-03-03T16:52:35;98911.06;;;13.29;51.67
60820;BME280;46641;48.904;9.126;2023-03-03T16:57:33;98917.97;;;13.30;51.79
60820;BME280;46641;48.904;9.126;2023-03-03T17:18:13;98939.31;;;13.27;51.88
60820;BME280;46641;48.904;9.126;2023-03-03T17:28:30;98946.38;;;13.26;52.14
60820;BME280;46641;48.904;9.126;2023-03-03T17:39:18;98964.38;;;13.21;52.38
60820;BME280;46641;48.904;9.126;2023-03-03T17:44:21;98967.16;;;13.20;51.94
60820;BME280;46641;48.904;9.126;2023-03-03T17:59:44;98984.44;;;13.04;51.92
60820;BME280;46641;48.904;9.126;2023-03-03T18:09:59;98991.50;;;12.86;52.62
60820;BME280;46641;48.904;9.126;2023-03-03T18:20:20;99002.53;;;12.72;52.30
60820;BME280;46641;48.904;9.126;2023-03-03T18:25:15;99007.41;;;12.67;53.03
60820;BME280;46641;48.904;9.126;2023-03-03T18:40:29;99014.81;;;12.53;52.92
60820;BME280;46641;48.904;9.126;2023-03-03T18:50:35;99026.19;;;12.44;52.84
60820;BME280;46641;48.904;9.126;2023-03-03T18:55:27;99035.03;;;12.43;53.27
60820;BME280;46641;48.904;9.126;2023-03-03T19:00:23;99043.38;;;12.38;53.07
60820;BME280;46641;48.904;9.126;2023-03-03T19:20:36;99046.44;;;12.24;52.94
60820;BME280;46641;48.904;9.126;2023-03-03T19:25:28;99047.56;;;12.22;53.63
60820;BME280;46641;48.904;9.126;2023-03-03T19:41:31;99062.81;;;12.08;53.63
60820;BME280;46641;48.904;9.126;2023-03-03T19:51:42;99062.56;;;12.02;53.31
60820;BME280;46641;48.904;9.126;2023-03-03T19:56:41;99067.81;;;12.02;53.61
60820;BME280;46641;48.904;9.126;2023-03-03T20:27:58;99081.66;;;11.75;53.48
60820;BME280;46641;48.904;9.126;2023-03-03T20:33:02;99081.09;;;11.71;53.54
60820;BME280;46641;48.904;9.126;2023-03-03T20:43:21;99097.53;;;11.63;54.17
60820;BME280;46641;48.904;9.126;2023-03-03T20:48:19;99096.84;;;11.61;54.45
60820;BME280;46641;48.904;9.126;2023-03-03T20:53:38;99101.66;;;11.56;54.08
60820;BME280;46641;48.904;9.126;2023-03-03T21:03:37;99104.16;;;11.48;53.94
60820;BME280;46641;48.904;9.126;2023-03-03T21:08:48;99107.34;;;11.42;54.21
60820;BME280;46641;48.904;9.126;2023-03-03T21:13:44;99105.00;;;11.39;54.75
60820;BME280;46641;48.904;9.126;2023-03-03T21:18:35;99110.50;;;11.36;54.60
60820;BME280;46641;48.904;9.126;2023-03-03T21:23:25;99113.56;;;11.31;54.40
60820;BME280;46641;48.904;9.126;2023-03-03T21:28:23;99118.63;;;11.33;54.39
60820;BME280;46641;48.904;9.126;2023-03-03T21:33:39;99111.31;;;11.27;54.28
60820;BME280;46641;48.904;9.126;2023-03-03T21:38:34;99108.84;;;11.25;54.31
60820;BME280;46641;48.904;9.126;2023-03-03T21:43:46;99118.34;;;11.16;54.23
60820;BME280;46641;48.904;9.126;2023-03-03T21:48:40;99105.69;;;11.12;54.65
60820;BME280;46641;48.904;9.126;2023-03-03T21:53:31;99111.84;;;11.11;54.93
60820;BME280;46641;48.904;9.126;2023-03-03T21:58:21;99117.53;;;11.06;54.90
60820;BME280;46641;48.904;9.126;2023-03-03T22:03:12;99120.25;;;11.05;54.85
60820;BME280;46641;48.904;9.126;2023-03-03T22:08:04;99118.06;;;11.00;54.72
60820;BME280;46641;48.904;9.126;2023-03-03T22:12:54;99122.59;;;10.98;54.95
60820;BME280;46641;48.904;9.126;2023-03-03T22:17:45;99115.97;;;10.94;54.80
60820;BME280;46641;48.904;9.126;2023-03-03T22:22:35;99117.22;;;10.90;54.88
60820;BME280;46641;48.904;9.126;2023-03-03T22:27:25;99118.31;;;10.87;54.66
60820;BME280;46641;48.904;9.126;2023-03-03T22:32:16;99119.53;;;10.83;55.04
60820;BME280;46641;48.904;9.126;2023-03-03T22:37:06;99118.00;;;10.81;54.87
60820;BME280;46641;48.904;9.126;2023-03-03T22:41:56;99125.16;;;10.79;54.92
60820;BME280;46641;48.904;9.126;2023-03-03T22:46:46;99133.16;;;10.77;55.04
60820;BME280;46641;48.904;9.126;2023-03-03T22:51:37;99130.94;;;10.72;55.08
60820;BME280;46641;48.904;9.126;2023-03-03T22:56:27;99125.97;;;10.69;55.00
60820;BME280;46641;48.904;9.126;2023-03-03T23:01:17;99129.81;;;10.65;55.17
60820;BME280;46641;48.904;9.126;2023-03-03T23:06:07;99131.75;;;10.63;55.01
60820;BME280;46641;48.904;9.126;2023-03-03T23:10:58;99134.47;;;10.62;55.05
60820;BME280;46641;48.904;9.126;2023-03-03T23:15:48;99130.59;;;10.56;55.41
60820;BME280;46641;48.904;9.126;2023-03-03T23:20:38;99130.88;;;10.53;55.71
60820;BME280;46641;48.904;9.126;2023-03-03T23:25:31;99136.38;;;10.50;55.10
60820;BME280;46641;48.904;9.126;2023-03-03T23:30:22;99142.56;;;10.49;55.29
60820;BME280;46641;48.904;9.126;2023-03-03T23:35:13;99138.53;;;10.45;55.37
60820;BME280;46641;48.904;9.126;2023-03-03T23:40:04;99138.81;;;10.42;55.46
60820;BME280;46641;48.904;9.126;2023-03-03T23:44:54;99148.56;;;10.40;55.52
60820;BME280;46641;48.904;9.126;2023-03-03T23:49:44;99142.66;;;10.38;55.80
60820;BME280;46641;48.904;9.126;2023-03-03T23:54:35;99147.31;;;10.34;55.58
60820;BME280;46641;48.904;9.126;2023-03-03T23:59:25;99152.94;;;10.29;55.69
